Time;durP1;ratioP1;P1;durP2;ratioP2;P2;SDS_P1;SDS_P2;PMS_P1;PMS_P2;Temp;Humidity;BMP_temperature;BMP_pressure;BME280_temperature;BME280_humidity;BME280_pressure;Samples;Min_cycle;Max_cycle;Signal;HPM_P1;HPM_P2
2024/04/18 00:02:13;;;;;;;3.85;3.10;;;4.70;99.90;;;;;;5428414;26;20244;-75
2024/04/18 00:04:40;;;;;;;3.35;2.95;;;4.60;99.90;;;;;;5419082;26;20344;-74
2024/04/18 00:07:08;;;;;;;4.82;3.92;;;4.50;99.90;;;;;;5412234;26;20240;-74
2024/04/18 00:09:35;;;;;;;7.45;4.35;;;4.50;99.90;;;;;;5426129;26;20680;-75
2024/04/18 00:12:03;;;;;;;7.53;6.40;;;4.40;99.90;;;;;;5424753;26;20252;-74
2024/04/18 00:14:30;;;;;;;5.72;5.20;;;4.40;99.90;;;;;;5435370;26;20621;-74
2024/04/18 00:17:01;;;;;;;4.97;4.32;;;4.40;99.90;;;;;;5421403;26;20287;-74
2024/04/18 00:19:27;;;;;;;4.75;3.75;;;4.30;99.90;;;;;;5438425;26;20746;-74
2024/04/18 00:21:56;;;;;;;3.88;3.55;;;4.20;99.90;;;;;;5429308;26;20291;-75
2024/04/18 00:24:22;;;;;;;4.15;3.45;;;4.20;99.90;;;;;;5422976;26;20378;-75
2024/04/18 00:26:51;;;;;;;7.50;3.60;;;4.20;99.90;;;;;;5432816;26;20646;-75
2024/04/18 00:29:17;;;;;;;5.50;3.53;;;4.20;99.90;;;;;;5440471;26;20658;-75
2024/04/18 00:31:46;;;;;;;4.53;3.40;;;4.30;99.90;;;;;;5431815;26;20252;-74
2024/04/18 00:34:15;;;;;;;4.57;3.40;;;4.30;99.90;;;;;;5434957;26;20297;-75
2024/04/18 00:36:44;;;;;;;5.55;3.58;;;4.40;99.90;;;;;;5443183;26;20720;-75
2024/04/18 00:39:10;;;;;;;4.32;3.92;;;4.40;99.90;;;;;;5429183;26;20661;-74
2024/04/18 00:41:38;;;;;;;4.38;3.95;;;4.30;99.90;;;;;;5417955;26;20240;-74
2024/04/18 00:44:05;;;;;;;4.38;3.08;;;4.30;99.90;;;;;;5421499;26;20257;-74
2024/04/18 00:46:34;;;;;;;4.07;3.60;;;4.30;99.90;;;;;;5431457;26;20277;-75
2024/04/18 00:49:00;;;;;;;4.53;4.10;;;4.40;99.90;;;;;;5418277;26;20248;-74
2024/04/18 00:51:32;;;;;;;3.85;3.13;;;4.30;99.90;;;;;;5425349;26;20240;-75
2024/04/18 00:53:58;;;;;;;4.28;3.40;;;4.30;99.90;;;;;;5415696;26;20246;-74
2024/04/18 00:56:27;;;;;;;5.10;3.35;;;4.30;99.90;;;;;;5438370;26;20285;-75
2024/04/18 00:58:54;;;;;;;3.95;3.33;;;4.30;99.90;;;;;;5412751;26;20254;-74
2024/04/18 01:01:25;;;;;;;5.53;4.00;;;4.20;99.90;;;;;;5432015;26;20243;-75
2024/04/18 01:03:51;;;;;;;4.85;3.65;;;4.30;99.90;;;;;;5429913;26;20262;-75
2024/04/18 01:06:20;;;;;;;3.55;3.25;;;4.20;99.90;;;;;;5427233;26;20591;-74
2024/04/18 01:08:50;;;;;;;3.00;2.53;;;4.30;99.90;;;;;;5431956;26;20247;-74
2024/04/18 01:11:20;;;;;;;3.45;2.90;;;4.30;99.90;;;;;;5424891;26;20256;-75
2024/04/18 01:13:47;;;;;;;2.80;2.60;;;4.30;99.90;;;;;;5439243;26;20235;-75
2024/04/18 01:16:17;;;;;;;3.63;3.33;;;4.30;99.90;;;;;;5440201;26;20311;-75
2024/04/18 01:18:43;;;;;;;4.03;2.85;;;4.30;99.90;;;;;;5431243;26;20343;-75
2024/04/18 01:21:13;;;;;;;3.00;2.72;;;4.30;99.90;;;;;;5399999;26;20272;-75
2024/04/18 01:23:40;;;;;;;3.08;2.78;;;4.40;99.90;;;;;;5427116;26;20576;-75
2024/04/18 01:26:15;;;;;;;6.05;3.40;;;4.40;99.90;;;;;;5420052;26;20887;-75
2024/04/18 01:28:42;;;;;;;4.45;2.60;;;4.40;99.90;;;;;;5406106;26;20582;-75
2024/04/18 01:31:11;;;;;;;2.45;2.25;;;4.40;99.90;;;;;;5429750;26;20740;-75
2024/04/18 01:33:37;;;;;;;3.33;3.03;;;4.60;99.90;;;;;;5411585;26;20247;-74
2024/04/18 01:36:06;;;;;;;2.13;1.92;;;4.50;99.90;;;;;;5415759;26;20732;-74
2024/04/18 01:38:33;;;;;;;2.85;2.10;;;4.60;99.90;;;;;;5442694;26;20247;-75
2024/04/18 01:41:01;;;;;;;2.47;2.28;;;4.50;99.90;;;;;;5421759;26;20242;-74
2024/04/18 01:43:31;;;;;;;2.55;2.22;;;4.50;99.90;;;;;;5422067;26;20244;-75
2024/04/18 01:46:01;;;;;;;5.05;2.65;;;4.60;99.90;;;;;;5419524;26;20248;-76
2024/04/18 01:48:27;;;;;;;2.70;1.95;;;4.50;99.90;;;;;;5432554;26;20251;-76
2024/04/18 01:50:57;;;;;;;2.72;2.00;;;4.60;99.90;;;;;;5442756;26;20266;-75
2024/04/18 01:53:23;;;;;;;2.50;2.20;;;4.50;99.90;;;;;;5423892;26;20252;-75
2024/04/18 01:55:52;;;;;;;4.10;3.05;;;4.60;99.90;;;;;;5437253;26;20242;-75
2024/04/18 01:58:19;;;;;;;6.28;3.88;;;4.60;99.90;;;;;;5427895;26;20281;-74
2024/04/18 02:00:50;;;;;;;2.90;2.60;;;4.60;99.90;;;;;;5437830;26;20246;-74
2024/04/18 02:03:17;;;;;;;2.30;2.10;;;4.60;99.90;;;;;;5440234;26;20266;-75
2024/04/18 02:05:47;;;;;;;2.75;1.85;;;4.60;99.90;;;;;;5431097;26;20242;-74
2024/04/18 02:08:13;;;;;;;2.10;1.90;;;4.70;99.90;;;;;;5416312;26;20261;-76
2024/04/18 02:10:44;;;;;;;2.50;2.10;;;4.80;99.90;;;;;;5443499;26;20243;-74
2024/04/18 02:13:11;;;;;;;1.95;1.75;;;4.80;99.90;;;;;;5424197;26;20278;-75
2024/04/18 02:15:40;;;;;;;1.60;1.50;;;4.70;99.90;;;;;;5415337;26;20247;-75
2024/04/18 02:18:10;;;;;;;2.45;2.08;;;4.70;99.90;;;;;;5426783;26;20647;-75
2024/04/18 02:20:40;;;;;;;2.00;1.80;;;4.70;99.90;;;;;;5416640;26;20889;-74
2024/04/18 02:23:07;;;;;;;2.05;1.90;;;4.70;99.90;;;;;;5434937;26;20239;-75
2024/04/18 02:25:37;;;;;;;3.20;2.20;;;4.70;99.90;;;;;;5421107;26;20293;-75
2024/04/18 02:28:04;;;;;;;2.10;1.73;;;4.70;99.90;;;;;;5426958;26;20266;-75
2024/04/18 02:30:33;;;;;;;2.10;1.90;;;4.80;99.90;;;;;;5420060;26;20283;-76
2024/04/18 02:33:00;;;;;;;2.47;2.00;;;4.80;99.90;;;;;;5416063;26;20344;-76
2024/04/18 02:35:31;;;;;;;4.53;2.42;;;4.90;99.90;;;;;;5438398;26;20604;-75
2024/04/18 02:37:57;;;;;;;2.40;2.13;;;4.90;99.90;;;;;;5436227;26;20243;-74
2024/04/18 02:40:26;;;;;;;2.25;1.80;;;4.90;99.90;;;;;;5423934;26;20295;-74
2024/04/18 02:42:52;;;;;;;2.80;2.25;;;5.00;99.90;;;;;;5435534;26;21044;-76
2024/04/18 02:45:21;;;;;;;1.90;1.80;;;5.00;99.90;;;;;;5438573;26;20292;-75
2024/04/18 02:47:47;;;;;;;2.90;2.55;;;5.00;99.90;;;;;;5444109;26;20285;-74
2024/04/18 02:50:16;;;;;;;2.75;1.90;;;4.90;99.90;;;;;;5421977;26;20311;-74
2024/04/18 02:52:45;;;;;;;2.50;2.10;;;5.10;99.90;;;;;;5418525;26;20863;-74
2024/04/18 02:55:14;;;;;;;3.75;1.92;;;5.10;99.90;;;;;;5413968;26;20366;-74
2024/04/18 02:57:40;;;;;;;2.00;1.80;;;5.00;99.90;;;;;;5413755;26;20343;-74
2024/04/18 03:00:10;;;;;;;2.60;2.40;;;5.00;99.90;;;;;;5430246;26;20240;-74
2024/04/18 03:02:36;;;;;;;4.55;4.15;;;5.00;99.90;;;;;;5448644;26;20247;-75
2024/04/18 03:05:06;;;;;;;3.50;3.20;;;4.90;99.90;;;;;;5425524;26;20342;-74
2024/04/18 03:07:32;;;;;;;2.95;2.65;;;4.80;99.90;;;;;;5415366;26;20252;-74
2024/04/18 03:10:03;;;;;;;2.08;1.88;;;4.70;99.90;;;;;;5414955;26;20282;-75
2024/04/18 03:12:29;;;;;;;4.25;2.25;;;4.70;99.90;;;;;;5435167;26;20640;-75
2024/04/18 03:14:58;;;;;;;3.03;2.42;;;4.70;99.90;;;;;;5422502;26;20244;-74
2024/04/18 03:17:24;;;;;;;2.28;2.08;;;4.80;99.90;;;;;;5421129;26;20257;-75
2024/04/18 03:19:53;;;;;;;2.20;1.65;;;4.70;99.90;;;;;;5423445;26;20757;-74
2024/04/18 03:22:19;;;;;;;2.45;2.05;;;4.60;99.90;;;;;;5416464;26;20764;-74
2024/04/18 03:24:48;;;;;;;3.65;2.50;;;4.40;99.90;;;;;;5428845;26;20248;-74
2024/04/18 03:27:17;;;;;;;1.90;1.80;;;4.40;99.90;;;;;;5439204;26;20600;-74
2024/04/18 03:29:46;;;;;;;2.65;2.42;;;4.40;99.90;;;;;;5437304;26;20279;-74
2024/04/18 03:32:12;;;;;;;2.50;2.30;;;4.30;99.90;;;;;;5429088;26;20267;-74
2024/04/18 03:34:41;;;;;;;4.20;2.53;;;4.30;99.90;;;;;;5419965;26;20325;-74
2024/04/18 03:37:10;;;;;;;3.13;2.47;;;4.20;99.90;;;;;;5414688;26;20248;-75
2024/04/18 03:39:39;;;;;;;3.33;2.97;;;4.20;99.90;;;;;;5416873;26;20635;-74
2024/04/18 03:42:08;;;;;;;2.90;2.50;;;4.20;99.90;;;;;;5425823;26;20248;-74
2024/04/18 03:44:40;;;;;;;2.80;2.35;;;4.20;99.90;;;;;;5412563;26;20259;-74
2024/04/18 03:47:09;;;;;;;3.95;3.10;;;4.10;99.90;;;;;;5413237;26;20271;-74
2024/04/18 03:49:35;;;;;;;8.93;4.93;;;4.10;99.90;;;;;;5415828;26;20259;-74
2024/04/18 03:52:04;;;;;;;4.93;3.60;;;4.10;99.90;;;;;;5414366;26;20270;-75
2024/04/18 03:54:30;;;;;;;5.72;4.90;;;4.20;99.90;;;;;;5427147;26;20247;-74
2024/04/18 03:56:59;;;;;;;4.70;3.80;;;4.20;99.90;;;;;;5429452;26;20240;-74
2024/04/18 03:59:25;;;;;;;10.55;6.10;;;4.20;99.90;;;;;;5429647;26;20945;-74
2024/04/18 04:01:57;;;;;;;5.85;3.58;;;4.10;99.90;;;;;;5428556;26;20284;-74
2024/04/18 04:04:23;;;;;;;3.50;3.17;;;4.00;99.90;;;;;;5429351;26;20324;-74
2024/04/18 04:06:52;;;;;;;4.65;3.30;;;4.00;99.90;;;;;;5411995;26;20790;-74
2024/04/18 04:09:18;;;;;;;4.65;3.67;;;4.00;99.90;;;;;;5412473;26;20318;-74
2024/04/18 04:11:47;;;;;;;3.35;3.00;;;4.00;99.90;;;;;;5423157;26;20295;-74
2024/04/18 04:14:16;;;;;;;3.70;3.20;;;3.90;99.90;;;;;;5414031;26;20248;-74
2024/04/18 04:16:45;;;;;;;4.00;3.60;;;4.00;99.90;;;;;;5425692;26;20267;-74
2024/04/18 04:19:14;;;;;;;3.65;3.20;;;3.90;99.90;;;;;;5432988;26;20254;-75
2024/04/18 04:21:42;;;;;;;3.90;3.03;;;3.90;99.90;;;;;;5410788;26;20243;-74
2024/04/18 04:24:09;;;;;;;3.35;3.05;;;3.90;99.90;;;;;;5402694;26;20250;-74
2024/04/18 04:26:37;;;;;;;3.50;3.00;;;3.90;99.90;;;;;;5411589;26;20240;-75
2024/04/18 04:29:04;;;;;;;3.03;2.67;;;3.90;99.90;;;;;;5431184;26;20292;-75
2024/04/18 04:31:32;;;;;;;3.80;3.40;;;3.80;99.90;;;;;;5447904;26;20601;-75
2024/04/18 04:33:59;;;;;;;3.80;3.40;;;3.90;99.90;;;;;;5413781;26;21001;-74
2024/04/18 04:36:30;;;;;;;3.67;3.15;;;3.90;99.90;;;;;;5423648;26;20287;-75
2024/04/18 04:38:56;;;;;;;5.57;4.05;;;3.90;99.90;;;;;;5407408;26;20258;-74
2024/04/18 04:41:26;;;;;;;4.85;4.38;;;3.90;99.90;;;;;;5422686;26;20254;-75
2024/04/18 04:43:52;;;;;;;8.27;4.07;;;4.00;99.90;;;;;;5438861;26;20242;-74
2024/04/18 04:46:21;;;;;;;5.32;4.43;;;4.00;99.90;;;;;;5431409;26;20242;-73
2024/04/18 04:48:47;;;;;;;4.70;4.00;;;4.00;99.90;;;;;;5413459;26;20248;-74
2024/04/18 04:51:17;;;;;;;6.90;4.95;;;4.10;99.90;;;;;;5427485;26;20317;-74
2024/04/18 04:53:46;;;;;;;4.65;4.10;;;4.10;99.90;;;;;;5413473;26;20346;-73
2024/04/18 04:56:16;;;;;;;5.57;4.55;;;4.10;99.90;;;;;;5415234;26;21255;-74
2024/04/18 04:59:00;;;;;;;4.35;3.85;;;4.10;99.90;;;;;;5405824;26;20316;-74
2024/04/18 05:01:49;;;;;;;5.68;4.45;;;4.10;99.90;;;;;;5417847;26;20235;-73
2024/04/18 05:04:36;;;;;;;5.50;4.32;;;4.10;99.90;;;;;;5405868;26;20299;-72
2024/04/18 05:07:25;;;;;;;5.72;3.60;;;4.10;99.90;;;;;;5433689;26;20280;-74
2024/04/18 05:10:14;;;;;;;5.78;4.28;;;4.20;99.90;;;;;;5447244;26;20288;-73
2024/04/18 05:13:03;;;;;;;4.72;4.22;;;4.20;99.90;;;;;;5434823;26;20251;-73
2024/04/18 05:15:30;;;;;;;5.15;4.13;;;4.30;99.90;;;;;;5453339;26;20242;-73
2024/04/18 05:18:03;;;;;;;6.28;4.68;;;4.30;99.90;;;;;;5447654;26;20243;-74
2024/04/18 05:20:30;;;;;;;4.57;4.18;;;4.30;99.90;;;;;;5454052;26;20266;-73
2024/04/18 05:22:59;;;;;;;5.03;4.05;;;4.30;99.90;;;;;;5464409;26;20783;-73
2024/04/18 05:25:28;;;;;;;5.45;3.95;;;4.40;99.90;;;;;;5470452;26;20292;-74
2024/04/18 05:28:04;;;;;;;4.32;3.92;;;4.40;99.90;;;;;;5466769;26;20246;-74
2024/04/18 05:33:18;;;;;;;5.30;4.68;;;4.40;99.90;;;;;;5447618;26;20265;-74
2024/04/18 05:35:47;;;;;;;6.18;4.03;;;4.40;99.90;;;;;;5453965;26;20246;-74
2024/04/18 05:38:16;;;;;;;5.63;4.75;;;4.50;99.90;;;;;;5481291;26;20580;-75
2024/04/18 05:40:48;;;;;;;4.93;4.30;;;4.50;99.90;;;;;;5441143;26;20752;-74
2024/04/18 05:43:17;;;;;;;7.03;5.05;;;4.50;99.90;;;;;;5453560;26;20274;-74
2024/04/18 05:45:47;;;;;;;7.80;4.95;;;4.50;99.90;;;;;;5477541;26;20242;-75
2024/04/18 05:48:16;;;;;;;7.70;5.25;;;4.50;99.90;;;;;;5446360;26;20255;-74
2024/04/18 05:50:45;;;;;;;7.22;5.25;;;4.60;99.90;;;;;;5465219;26;20238;-74
2024/04/18 05:53:14;;;;;;;7.60;6.55;;;4.60;99.90;;;;;;5485313;26;20243;-74
2024/04/18 05:55:43;;;;;;;5.70;5.07;;;4.60;99.90;;;;;;5484797;26;20261;-74
2024/04/18 05:58:16;;;;;;;5.35;4.82;;;4.60;99.90;;;;;;5464424;26;20250;-74
2024/04/18 06:00:43;;;;;;;7.25;5.20;;;4.60;99.90;;;;;;5450807;26;20262;-74
2024/04/18 06:03:12;;;;;;;7.63;5.65;;;4.60;99.90;;;;;;5471176;26;20238;-73
2024/04/18 06:05:38;;;;;;;6.82;5.82;;;4.50;99.90;;;;;;5484968;26;20269;-73
2024/04/18 06:08:07;;;;;;;7.85;6.22;;;4.50;99.90;;;;;;5470552;26;20270;-74
2024/04/18 06:10:37;;;;;;;6.65;5.63;;;4.50;99.90;;;;;;5473783;26;20250;-74
2024/04/18 06:13:07;;;;;;;7.65;5.90;;;4.70;99.90;;;;;;5455831;26;20281;-74
2024/04/18 06:15:42;;;;;;;6.05;5.15;;;4.70;99.90;;;;;;5448777;26;20918;-75
2024/04/18 06:18:11;;;;;;;5.72;4.80;;;4.70;99.90;;;;;;5474609;26;20597;-74
2024/04/18 06:20:44;;;;;;;7.65;4.90;;;4.70;99.90;;;;;;5463943;26;20243;-73
2024/04/18 06:23:13;;;;;;;7.22;5.45;;;4.70;99.90;;;;;;5457625;26;20246;-73
2024/04/18 06:25:43;;;;;;;7.05;5.10;;;4.60;99.90;;;;;;5449447;26;20726;-74
2024/04/18 06:28:13;;;;;;;6.38;5.45;;;4.80;99.90;;;;;;5435263;26;20336;-73
2024/04/18 06:30:46;;;;;;;6.75;5.93;;;4.70;99.90;;;;;;5449864;26;20791;-74
2024/04/18 06:33:15;;;;;;;6.35;5.10;;;4.80;99.90;;;;;;5449728;26;20285;-73
2024/04/18 06:35:41;;;;;;;7.65;5.95;;;4.90;99.90;;;;;;5465501;26;20255;-74
2024/04/18 06:38:11;;;;;;;7.05;5.45;;;5.00;99.90;;;;;;5473163;26;20299;-74
2024/04/18 06:40:40;;;;;;;7.13;5.70;;;4.90;99.90;;;;;;5465025;26;20251;-73
2024/04/18 06:43:08;;;;;;;6.28;5.50;;;5.00;99.90;;;;;;5449097;26;20244;-74
2024/04/18 06:45:38;;;;;;;6.57;5.75;;;5.00;99.90;;;;;;5447518;26;20244;-73
2024/04/18 06:48:11;;;;;;;6.05;5.10;;;4.90;99.90;;;;;;5472345;26;20269;-73
2024/04/18 06:50:40;;;;;;;6.50;5.00;;;4.90;99.90;;;;;;5475221;26;20307;-73
2024/04/18 06:53:09;;;;;;;5.72;4.55;;;4.80;99.90;;;;;;5474367;26;20280;-74
2024/04/18 06:55:38;;;;;;;5.88;5.38;;;4.80;99.90;;;;;;5475135;26;20243;-73
2024/04/18 06:58:07;;;;;;;6.10;4.75;;;4.80;99.90;;;;;;5468423;26;20286;-73
2024/04/18 07:00:37;;;;;;;6.50;5.25;;;4.80;99.90;;;;;;5476092;26;20242;-73
2024/04/18 07:03:12;;;;;;;6.70;5.75;;;4.70;99.90;;;;;;5455804;26;20247;-73
2024/04/18 07:05:38;;;;;;;6.30;5.68;;;4.90;99.90;;;;;;5448423;26;20246;-73
2024/04/18 07:08:08;;;;;;;6.47;5.70;;;4.80;99.90;;;;;;5473548;26;20243;-73
2024/04/18 07:10:34;;;;;;;6.05;5.35;;;4.90;99.90;;;;;;5478746;26;20242;-73
2024/04/18 07:13:03;;;;;;;6.15;5.20;;;5.00;99.90;;;;;;5481924;26;20284;-73
2024/04/18 07:15:32;;;;;;;9.60;6.53;;;5.00;99.90;;;;;;5460737;26;20279;-73
2024/04/18 07:18:00;;;;;;;6.70;5.50;;;4.80;99.90;;;;;;5472663;26;20255;-73
2024/04/18 07:20:33;;;;;;;8.15;5.95;;;4.70;99.90;;;;;;5475966;26;20277;-73
2024/04/18 07:23:02;;;;;;;5.10;4.63;;;4.70;99.90;;;;;;5475870;26;20579;-73
2024/04/18 07:25:31;;;;;;;7.45;6.40;;;4.70;99.90;;;;;;5479688;26;20581;-73
2024/04/18 07:28:00;;;;;;;5.82;5.25;;;4.70;99.90;;;;;;5482186;26;20273;-72
2024/04/18 07:30:29;;;;;;;9.00;5.53;;;4.70;99.90;;;;;;5476885;26;20265;-73
2024/04/18 07:32:57;;;;;;;5.50;4.65;;;4.70;99.90;;;;;;5477055;26;20257;-73
2024/04/18 07:35:26;;;;;;;6.13;4.85;;;4.60;99.90;;;;;;5476997;26;20245;-73
2024/04/18 07:37:58;;;;;;;4.30;3.35;;;4.70;99.90;;;;;;5477559;26;20272;-73
2024/04/18 07:40:26;;;;;;;4.57;3.92;;;4.80;99.90;;;;;;5468090;26;20282;-73
2024/04/18 07:42:56;;;;;;;4.60;3.85;;;4.70;99.90;;;;;;5459996;26;20248;-73
2024/04/18 07:45:25;;;;;;;4.70;3.28;;;4.60;99.90;;;;;;5477089;26;20249;-73
2024/04/18 07:47:54;;;;;;;3.55;3.25;;;4.60;99.90;;;;;;5477859;26;20280;-73
2024/04/18 07:50:23;;;;;;;3.20;2.90;;;4.60;99.90;;;;;;5478741;26;20723;-73
2024/04/18 07:52:51;;;;;;;2.35;2.15;;;4.60;99.90;;;;;;5476906;26;20737;-75
2024/04/18 07:55:23;;;;;;;5.38;3.08;;;4.60;99.90;;;;;;5440655;26;20270;-76
2024/04/18 07:57:52;;;;;;;5.63;4.45;;;4.50;99.90;;;;;;5451518;26;20242;-76
2024/04/18 08:00:21;;;;;;;4.55;3.33;;;4.50;99.90;;;;;;5451215;26;20244;-76
2024/04/18 08:02:51;;;;;;;3.50;3.17;;;4.60;99.90;;;;;;5449253;26;20242;-75
2024/04/18 08:05:20;;;;;;;4.10;3.70;;;4.60;99.90;;;;;;5434501;26;20267;-76
2024/04/18 08:07:49;;;;;;;4.85;3.40;;;4.60;99.90;;;;;;5447380;26;20290;-76
2024/04/18 08:10:18;;;;;;;4.18;3.78;;;4.70;99.90;;;;;;5470059;26;20288;-76
2024/04/18 08:12:49;;;;;;;3.83;3.42;;;4.80;99.90;;;;;;5470301;26;20632;-75
2024/04/18 08:15:18;;;;;;;6.72;3.63;;;4.90;99.90;;;;;;5445445;26;20762;-75
2024/04/18 08:17:47;;;;;;;4.78;3.38;;;4.90;99.90;;;;;;5438851;26;20266;-76
2024/04/18 08:20:16;;;;;;;4.05;3.65;;;5.00;99.90;;;;;;5444621;26;20262;-76
2024/04/18 08:22:52;;;;;;;3.75;3.15;;;5.00;99.90;;;;;;5439539;26;22161;-76
2024/04/18 08:25:24;;;;;;;4.05;3.50;;;5.10;99.90;;;;;;5444023;26;20554;-75
2024/04/18 08:27:57;;;;;;;4.90;4.38;;;4.90;99.90;;;;;;5465366;26;20246;-76
2024/04/18 08:30:29;;;;;;;3.60;3.30;;;5.10;99.90;;;;;;5455280;26;20736;-75
2024/04/18 08:32:58;;;;;;;5.07;4.57;;;5.20;99.90;;;;;;5461597;26;20251;-76
2024/04/18 08:35:27;;;;;;;5.28;4.30;;;5.20;99.90;;;;;;5476267;26;20944;-76
2024/04/18 08:37:55;;;;;;;5.32;4.82;;;5.30;99.90;;;;;;5479817;26;20751;-75
2024/04/18 08:40:24;;;;;;;5.13;4.43;;;5.30;99.90;;;;;;5471783;26;20584;-76
2024/04/18 08:42:56;;;;;;;5.05;4.22;;;5.30;99.90;;;;;;5444607;26;20249;-77
2024/04/18 08:45:33;;;;;;;5.43;4.70;;;5.30;99.90;;;;;;5476181;26;20273;-76
2024/04/18 08:48:03;;;;;;;7.03;5.50;;;5.30;99.90;;;;;;5482059;26;20352;-76
2024/04/18 08:50:34;;;;;;;4.70;4.30;;;5.20;99.90;;;;;;5482200;26;20581;-76
2024/04/18 08:53:04;;;;;;;4.95;4.45;;;5.10;99.90;;;;;;5481500;26;20244;-76
2024/04/18 08:55:35;;;;;;;6.05;5.40;;;5.20;99.90;;;;;;5482991;26;20273;-76
2024/04/18 08:58:10;;;;;;;4.65;4.25;;;5.10;99.90;;;;;;5463303;26;20240;-76
2024/04/18 09:00:43;;;;;;;5.22;4.65;;;5.10;99.90;;;;;;5447854;26;20255;-76
2024/04/18 09:03:13;;;;;;;8.85;5.00;;;5.10;99.90;;;;;;5482783;26;20760;-77
2024/04/18 09:05:43;;;;;;;5.57;5.00;;;5.10;99.90;;;;;;5481287;26;20579;-76
2024/04/18 09:08:12;;;;;;;5.85;4.97;;;5.10;99.90;;;;;;5482889;26;20258;-76
2024/04/18 09:10:42;;;;;;;7.03;6.32;;;5.00;99.90;;;;;;5483943;26;20703;-76
2024/04/18 09:13:14;;;;;;;5.75;5.18;;;5.00;99.90;;;;;;5483707;26;20280;-76
2024/04/18 09:15:43;;;;;;;6.47;4.82;;;5.10;99.90;;;;;;5460082;26;20732;-76
2024/04/18 09:18:13;;;;;;;9.52;5.93;;;5.20;99.90;;;;;;5446873;26;20349;-77
2024/04/18 09:20:43;;;;;;;12.95;7.15;;;5.20;99.90;;;;;;5446977;26;20742;-89
2024/04/18 09:23:12;;;;;;;14.43;6.90;;;5.20;99.90;;;;;;5450074;26;20246;-89
2024/04/18 09:25:42;;;;;;;17.50;5.60;;;5.30;99.90;;;;;;5455487;26;20239;-87
2024/04/18 09:28:11;;;;;;;6.70;5.20;;;5.40;99.90;;;;;;5433227;26;20839;-85
2024/04/18 09:30:43;;;;;;;5.57;5.03;;;5.40;99.90;;;;;;5457769;26;20246;-87
2024/04/18 09:33:12;;;;;;;6.78;5.35;;;5.60;99.90;;;;;;5454688;26;20234;-87
2024/04/18 09:35:45;;;;;;;5.85;5.13;;;6.00;99.90;;;;;;5457237;26;20239;-87
2024/04/18 09:38:16;;;;;;;6.57;5.70;;;5.80;99.90;;;;;;5465861;26;20243;-84
2024/04/18 09:40:54;;;;;;;7.03;5.28;;;5.80;99.90;;;;;;5459538;26;20255;-83
2024/04/18 09:43:26;;;;;;;7.43;6.63;;;6.00;99.90;;;;;;5459542;26;20575;-83
2024/04/18 09:46:04;;;;;;;6.68;6.03;;;6.10;99.90;;;;;;5450675;26;20274;-82
2024/04/18 09:48:33;;;;;;;7.35;5.93;;;6.50;99.90;;;;;;5454334;26;20243;-83
2024/04/18 09:51:05;;;;;;;11.23;5.68;;;6.50;99.90;;;;;;5470587;26;20240;-82
2024/04/18 09:53:34;;;;;;;6.35;5.60;;;6.70;99.90;;;;;;5455865;26;20240;-82
2024/04/18 09:56:03;;;;;;;6.35;5.63;;;7.20;99.90;;;;;;5447905;26;20248;-83
2024/04/18 09:58:33;;;;;;;7.40;6.20;;;7.30;98.40;;;;;;5436730;26;20563;-82
2024/04/18 10:01:05;;;;;;;8.82;8.02;;;7.60;99.00;;;;;;5449083;26;20343;-82
2024/04/18 10:03:34;;;;;;;7.00;4.30;;;7.80;98.50;;;;;;5459838;26;20820;-73
2024/04/18 10:06:06;;;;;;;4.90;4.50;;;7.60;96.40;;;;;;5446592;26;20276;-77
2024/04/18 10:08:39;;;;;;;4.10;3.70;;;7.70;97.10;;;;;;5451991;26;20251;-77
2024/04/18 10:11:09;;;;;;;5.70;4.55;;;8.00;97.20;;;;;;5457688;26;20606;-77
2024/04/18 10:13:39;;;;;;;3.70;3.40;;;7.90;96.20;;;;;;5470038;26;20243;-77
2024/04/18 10:16:13;;;;;;;7.50;3.97;;;7.90;96.00;;;;;;5458554;26;20266;-80
2024/04/18 10:18:44;;;;;;;3.93;3.60;;;7.80;96.40;;;;;;5445086;26;21447;-80
2024/04/18 10:21:15;;;;;;;3.85;3.55;;;7.50;95.40;;;;;;5477796;26;20553;-79
2024/04/18 10:23:51;;;;;;;4.13;3.72;;;7.60;96.40;;;;;;5456161;26;20244;-79
2024/04/18 10:26:20;;;;;;;3.53;3.20;;;7.70;95.70;;;;;;5456815;26;20265;-79
2024/04/18 10:28:51;;;;;;;4.65;3.60;;;7.70;95.10;;;;;;5463851;26;20665;-79
2024/04/18 10:31:23;;;;;;;6.35;4.78;;;7.50;94.20;;;;;;5477753;26;20269;-79
2024/04/18 10:33:53;;;;;;;8.95;4.28;;;6.90;96.20;;;;;;5477574;26;20262;-77
2024/04/18 10:36:22;;;;;;;3.75;2.70;;;6.80;97.30;;;;;;5464125;26;20243;-78
2024/04/18 10:38:51;;;;;;;4.15;2.45;;;6.20;97.20;;;;;;5477612;26;20370;-80
2024/04/18 10:41:25;;;;;;;6.18;4.43;;;5.90;98.80;;;;;;5481836;26;20239;-79
2024/04/18 10:43:54;;;;;;;3.92;2.67;;;5.80;99.90;;;;;;5454816;26;20254;-79
2024/04/18 10:46:24;;;;;;;2.05;1.85;;;5.30;99.90;;;;;;5462445;26;20243;-78
2024/04/18 10:48:56;;;;;;;1.75;1.65;;;5.20;99.90;;;;;;5465523;26;20262;-79
2024/04/18 10:51:29;;;;;;;2.03;1.85;;;5.10;99.90;;;;;;5479187;26;20243;-78
2024/04/18 10:53:58;;;;;;;1.80;1.70;;;5.30;99.90;;;;;;5462866;26;20247;-78
2024/04/18 10:56:27;;;;;;;2.22;2.03;;;5.40;99.90;;;;;;5483325;26;20270;-79
2024/04/18 10:58:56;;;;;;;2.15;1.60;;;5.90;99.90;;;;;;5452679;26;20248;-79
2024/04/18 11:01:31;;;;;;;2.53;2.33;;;6.20;99.90;;;;;;5452566;26;20293;-79
2024/04/18 11:04:00;;;;;;;5.85;2.13;;;6.40;99.90;;;;;;5450894;26;20291;-78
2024/04/18 11:06:29;;;;;;;3.30;3.03;;;6.40;99.90;;;;;;5463922;26;20259;-79
2024/04/18 11:08:57;;;;;;;3.28;3.08;;;6.50;99.90;;;;;;5469082;26;20290;-78
2024/04/18 11:11:27;;;;;;;6.15;3.72;;;6.40;99.90;;;;;;5485992;26;20255;-78
2024/04/18 11:13:57;;;;;;;4.22;3.05;;;6.50;99.90;;;;;;5480169;26;20273;-78
2024/04/18 11:16:29;;;;;;;3.50;3.20;;;6.30;99.90;;;;;;5467206;26;20243;-78
2024/04/18 11:18:59;;;;;;;5.70;3.13;;;6.30;99.90;;;;;;5477880;26;20243;-78
2024/04/18 11:21:28;;;;;;;3.65;3.03;;;6.30;99.90;;;;;;5467568;26;20613;-78
2024/04/18 11:23:58;;;;;;;3.85;3.45;;;6.30;99.90;;;;;;5448887;26;20244;-78
2024/04/18 11:26:29;;;;;;;5.88;4.32;;;6.30;99.90;;;;;;5448210;26;20248;-78
2024/04/18 11:28:57;;;;;;;3.88;3.50;;;6.40;99.90;;;;;;5466221;26;20247;-78
2024/04/18 11:31:28;;;;;;;5.90;4.05;;;6.90;99.90;;;;;;5480531;26;20271;-78
2024/04/18 11:33:57;;;;;;;2.90;2.63;;;6.90;99.90;;;;;;5482310;26;20588;-78
2024/04/18 11:36:27;;;;;;;7.28;4.07;;;7.20;99.90;;;;;;5481671;26;20573;-78
2024/04/18 11:39:02;;;;;;;5.15;3.65;;;8.00;99.90;;;;;;5480305;26;20651;-78
2024/04/18 11:41:33;;;;;;;4.33;3.93;;;8.40;99.90;;;;;;5457182;26;20320;-78
2024/04/18 11:44:01;;;;;;;4.43;3.40;;;8.20;98.30;;;;;;5448167;26;20590;-78
2024/04/18 11:46:33;;;;;;;3.87;3.47;;;7.70;98.10;;;;;;5448087;26;21146;-78
2024/04/18 11:49:02;;;;;;;4.37;3.97;;;7.80;99.10;;;;;;5479282;26;20592;-78
2024/04/18 11:51:31;;;;;;;4.30;3.90;;;8.30;99.50;;;;;;5483047;26;20601;-78
2024/04/18 11:53:59;;;;;;;4.97;4.50;;;8.30;96.60;;;;;;5482845;26;20583;-78
2024/04/18 11:56:28;;;;;;;4.40;3.80;;;9.00;97.40;;;;;;5483697;26;20940;-78
2024/04/18 11:58:59;;;;;;;3.77;3.43;;;10.00;95.60;;;;;;5467759;26;20556;-78
2024/04/18 12:01:28;;;;;;;4.37;3.93;;;9.80;95.30;;;;;;5467839;26;20616;-78
2024/04/18 12:03:59;;;;;;;4.07;3.23;;;9.50;94.20;;;;;;5483274;26;20919;-78
2024/04/18 12:06:28;;;;;;;4.23;3.27;;;9.20;95.30;;;;;;5463218;26;20608;-78
2024/04/18 12:08:57;;;;;;;4.17;3.67;;;8.40;95.00;;;;;;5483771;26;20603;-78
2024/04/18 12:11:26;;;;;;;4.67;4.20;;;7.80;95.60;;;;;;5475900;26;20598;-78
2024/04/18 12:13:55;;;;;;;3.17;2.87;;;7.30;97.30;;;;;;5462737;26;21120;-78
2024/04/18 12:16:24;;;;;;;4.20;3.40;;;6.90;98.20;;;;;;5465236;26;20569;-78
2024/04/18 12:18:53;;;;;;;3.20;2.90;;;6.40;98.20;;;;;;5448456;26;20562;-78
2024/04/18 12:21:25;;;;;;;4.17;3.43;;;6.00;99.80;;;;;;5455246;26;20623;-78
2024/04/18 12:23:54;;;;;;;4.03;3.63;;;5.90;99.90;;;;;;5464187;26;20594;-78
2024/04/18 12:26:22;;;;;;;5.15;4.05;;;5.70;99.90;;;;;;5469940;26;20597;-78
2024/04/18 12:28:51;;;;;;;6.25;4.70;;;5.70;99.90;;;;;;5454677;26;20255;-79
2024/04/18 12:31:20;;;;;;;4.85;3.92;;;5.80;99.90;;;;;;5446298;26;20243;-79
2024/04/18 12:33:49;;;;;;;5.30;4.35;;;5.90;99.90;;;;;;5453257;26;20271;-79
2024/04/18 12:36:21;;;;;;;6.20;4.60;;;6.00;99.90;;;;;;5449086;26;20282;-78
2024/04/18 12:38:52;;;;;;;7.72;5.22;;;6.00;99.90;;;;;;5476761;26;20258;-79
2024/04/18 12:41:21;;;;;;;6.47;5.55;;;6.10;99.90;;;;;;5457022;26;20247;-79
2024/04/18 12:43:50;;;;;;;9.73;8.07;;;6.10;99.90;;;;;;5470695;26;20289;-79
2024/04/18 12:46:19;;;;;;;5.15;4.65;;;6.30;99.90;;;;;;5470637;26;20742;-78
2024/04/18 12:48:49;;;;;;;6.95;6.00;;;6.30;99.90;;;;;;5473544;26;20336;-79
2024/04/18 12:51:17;;;;;;;5.45;4.95;;;6.20;99.90;;;;;;5454526;26;20277;-79
2024/04/18 12:53:46;;;;;;;5.72;5.22;;;6.30;99.90;;;;;;5462348;26;20244;-78
2024/04/18 12:56:18;;;;;;;5.70;5.18;;;6.60;99.90;;;;;;5471171;26;20744;-78
2024/04/18 12:58:47;;;;;;;6.03;4.75;;;6.60;99.90;;;;;;5455036;26;20287;-79
2024/04/18 13:01:16;;;;;;;5.38;4.70;;;6.70;99.90;;;;;;5473230;26;20243;-78
2024/04/18 13:03:46;;;;;;;7.50;5.05;;;7.00;99.90;;;;;;5474424;26;20256;-79
2024/04/18 13:06:16;;;;;;;6.30;4.75;;;7.10;99.90;;;;;;5481297;26;20696;-79
2024/04/18 13:08:45;;;;;;;5.37;4.83;;;7.10;99.90;;;;;;5476475;26;20277;-79
2024/04/18 13:11:14;;;;;;;6.28;5.40;;;7.10;99.90;;;;;;5473335;26;20548;-78
2024/04/18 13:13:45;;;;;;;8.50;6.60;;;7.10;99.90;;;;;;5459976;26;20693;-78